^^
Meteo Knjazevac Station Historical Data
Daily Summary for January 15, 2022 Units:  English    Metric   Both
Daily Weekly Monthly Yearly Custom
  High: Low: Average:
Temperature: 47.5 °F 27.8 °F 38.7 °F
Dew Point: 34.8 °F 24.1 °F 31.5 °F
Humidity: 86% 54% 76%
Wind Speed: 14mph 0mph 5.6mph
Wind Gust: 21mph - -
Wind- - WSW
Pressure: 30.39 in 30.22 in -
Precipitation: 0.00 in    
Historical Graphs
 
 
Tabular Data for January 15, 2022
Time Temperature Dew Point Pressure Wind Wind Speed Wind Gust Humidity Rainfall Rate (Hourly) solar Conditions
00:00 36.5 °F 32.7 °F 30.23 in WSW 2 mph 6 mph 86% 0.00 in 0 W/m2
00:10 37 °F 33.2 °F 30.22 in South 5 mph 8 mph 86% 0.00 in 0 W/m2
00:20 37.6 °F 33.8 °F 30.22 in SSE 2 mph 9 mph 86% 0.00 in 0 W/m2
00:30 38.1 °F 34 °F 30.22 in South 5 mph 9 mph 85% 0.00 in 0 W/m2
00:40 39 °F 34.6 °F 30.22 in SSW 3 mph 9 mph 84% 0.00 in 0 W/m2
00:50 39.2 °F 34.8 °F 30.22 in South 6 mph 8 mph 84% 0.00 in 0 W/m2
01:00 39.2 °F 34.5 °F 30.22 in SSW 5 mph 9 mph 83% 0.00 in 0 W/m2
01:10 39.6 °F 34.2 °F 30.22 in SSW 5 mph 9 mph 81% 0.00 in 0 W/m2
01:20 39.9 °F 34.6 °F 30.22 in SW 6 mph 9 mph 81% 0.00 in 0 W/m2
01:30 39.7 °F 34.1 °F 30.22 in SW 7 mph 11 mph 80% 0.00 in 0 W/m2
01:40 39.7 °F 34.1 °F 30.22 in SSW 6 mph 11 mph 80% 0.00 in 0 W/m2
01:50 39.7 °F 34.1 °F 30.22 in SSW 8 mph 12 mph 80% 0.00 in 0 W/m2
02:00 39.9 °F 33.9 °F 30.23 in SSW 7 mph 13 mph 79% 0.00 in 0 W/m2
02:10 40.1 °F 34.1 °F 30.23 in SSW 5 mph 11 mph 79% 0.00 in 0 W/m2
02:20 40.1 °F 34.1 °F 30.23 in South 6 mph 12 mph 79% 0.00 in 0 W/m2
02:30 40.1 °F 33.8 °F 30.23 in SW 5 mph 10 mph 78% 0.00 in 0 W/m2
02:40 40.1 °F 33.8 °F 30.23 in SW 5 mph 9 mph 78% 0.00 in 0 W/m2
02:50 40.1 °F 33.8 °F 30.23 in SW 7 mph 12 mph 78% 0.00 in 0 W/m2
03:00 40.3 °F 33.6 °F 30.23 in SW 7 mph 12 mph 77% 0.00 in 0 W/m2
03:10 39.9 °F 33.6 °F 30.24 in SW 5 mph 8 mph 78% 0.00 in 0 W/m2
03:20 39.9 °F 33.6 °F 30.24 in SW 5 mph 12 mph 78% 0.00 in 0 W/m2
03:30 40.1 °F 33.8 °F 30.24 in WSW 3 mph 12 mph 78% 0.00 in 0 W/m2
03:40 40.1 °F 33.8 °F 30.24 in WSW 3 mph 7 mph 78% 0.00 in 0 W/m2
03:50 40.1 °F 33.8 °F 30.24 in WSW 6 mph 9 mph 78% 0.00 in 0 W/m2
04:00 40.1 °F 33.8 °F 30.25 in SW 5 mph 11 mph 78% 0.00 in 0 W/m2
04:10 40.1 °F 33.8 °F 30.25 in SW 7 mph 10 mph 78% 0.00 in 0 W/m2
04:20 40.1 °F 33.8 °F 30.25 in SW 7 mph 11 mph 78% 0.00 in 0 W/m2
04:30 39.9 °F 33.9 °F 30.25 in WSW 7 mph 10 mph 79% 0.00 in 0 W/m2
04:40 39.7 °F 33.8 °F 30.25 in SW 10 mph 15 mph 79% 0.00 in 0 W/m2
04:50 39.7 °F 33.8 °F 30.25 in SW 14 mph 21 mph 79% 0.00 in 0 W/m2
05:00 39.6 °F 33.9 °F 30.25 in WSW 8 mph 16 mph 80% 0.00 in 0 W/m2
05:10 39.6 °F 33.9 °F 30.26 in WSW 8 mph 13 mph 80% 0.00 in 0 W/m2
05:20 39.4 °F 33.7 °F 30.26 in WSW 6 mph 13 mph 80% 0.00 in 0 W/m2
05:30 39.2 °F 33.5 °F 30.26 in WSW 7 mph 13 mph 80% 0.00 in 0 W/m2
05:40 39.2 °F 33.9 °F 30.26 in WSW 8 mph 15 mph 81% 0.00 in 0 W/m2
05:50 39 °F 33.7 °F 30.26 in WSW 8 mph 15 mph 81% 0.00 in 0 W/m2
06:00 38.8 °F 33.5 °F 30.26 in WSW 3 mph 15 mph 81% 0.00 in 0 W/m2
06:10 38.5 °F 33.2 °F 30.26 in West 6 mph 11 mph 81% 0.00 in 0 W/m2
06:20 38.3 °F 33.6 °F 30.27 in WSW 3 mph 10 mph 83% 0.00 in 0 W/m2
06:30 37.9 °F 33.2 °F 30.27 in West 2 mph 5 mph 83% 0.00 in 0 W/m2
06:40 37.8 °F 33.1 °F 30.27 in West 8 mph 16 mph 83% 0.00 in 0 W/m2
06:50 37.9 °F 33.2 °F 30.27 in West 9 mph 17 mph 83% 0.00 in 0 W/m2
07:00 37.8 °F 33.4 °F 30.28 in West 10 mph 20 mph 84% 0.00 in 0 W/m2
07:10 37.6 °F 33.2 °F 30.28 in West 12 mph 20 mph 84% 0.00 in 9 W/m2
07:20 37.4 °F 33 °F 30.28 in West 12 mph 17 mph 84% 0.00 in 11 W/m2
07:30 37.2 °F 33.1 °F 30.29 in West 12 mph 18 mph 85% 0.00 in 25 W/m2
07:40 37.2 °F 33.1 °F 30.29 in West 12 mph 18 mph 85% 0.00 in 40 W/m2
07:50 37.2 °F 33.1 °F 30.30 in West 12 mph 18 mph 85% 0.00 in 57 W/m2
08:00 37.4 °F 33 °F 30.29 in West 10 mph 18 mph 84% 0.00 in 76 W/m2
08:10 37.8 °F 33.4 °F 30.30 in West 8 mph 17 mph 84% 0.00 in 98 W/m2
08:20 38.1 °F 33.4 °F 30.30 in West 10 mph 16 mph 83% 0.00 in 121 W/m2
08:30 38.7 °F 33.9 °F 30.30 in WSW 7 mph 15 mph 83% 0.00 in 141 W/m2
08:40 39 °F 33.7 °F 30.30 in WSW 10 mph 17 mph 81% 0.00 in 161 W/m2
08:50 39.2 °F 33.9 °F 30.30 in West 9 mph 15 mph 81% 0.00 in 181 W/m2
09:00 39.6 °F 33.9 °F 30.30 in West 10 mph 17 mph 80% 0.00 in 200 W/m2
09:10 39.9 °F 34.2 °F 30.31 in West 9 mph 15 mph 80% 0.00 in 219 W/m2
09:20 40.1 °F 34.1 °F 30.31 in West 9 mph 16 mph 79% 0.00 in 236 W/m2
09:30 40.6 °F 34.6 °F 30.31 in West 10 mph 17 mph 79% 0.00 in 253 W/m2
09:40 41 °F 34.7 °F 30.32 in West 7 mph 15 mph 78% 0.00 in 269 W/m2
09:50 41.4 °F 34.7 °F 30.32 in West 7 mph 14 mph 77% 0.00 in 284 W/m2
10:00 41.8 °F 34.4 °F 30.32 in WNW 7 mph 17 mph 75% 0.00 in 298 W/m2
10:10 42.3 °F 34.6 °F 30.32 in West 7 mph 13 mph 74% 0.00 in 311 W/m2
10:20 42.8 °F 34.7 °F 30.32 in WNW 9 mph 14 mph 73% 0.00 in 322 W/m2
10:30 43 °F 34.6 °F 30.32 in West 8 mph 14 mph 72% 0.00 in 332 W/m2
10:40 43.7 °F 34.6 °F 30.32 in West 6 mph 12 mph 70% 0.00 in 341 W/m2
10:50 44.1 °F 34.5 °F 30.31 in WNW 7 mph 12 mph 69% 0.00 in 349 W/m2
11:00 44.4 °F 34.5 °F 30.31 in West 7 mph 12 mph 68% 0.00 in 355 W/m2
11:10 44.8 °F 34.5 °F 30.31 in West 9 mph 12 mph 67% 0.00 in 359 W/m2
11:20 45 °F 33.9 °F 30.31 in West 6 mph 14 mph 65% 0.00 in 363 W/m2
11:30 45.1 °F 34.1 °F 30.31 in West 7 mph 12 mph 65% 0.00 in 364 W/m2
11:40 45.3 °F 33.9 °F 30.31 in West 7 mph 12 mph 64% 0.00 in 365 W/m2
11:50 45.5 °F 33.7 °F 30.30 in West 7 mph 12 mph 63% 0.00 in 363 W/m2
12:00 46 °F 34.1 °F 30.30 in West 5 mph 11 mph 63% 0.00 in 361 W/m2
12:10 46.2 °F 33.9 °F 30.30 in West 7 mph 12 mph 62% 0.00 in 357 W/m2
12:20 46.4 °F 33.3 °F 30.30 in West 7 mph 13 mph 60% 0.00 in 351 W/m2
12:30 46.4 °F 32.8 °F 30.30 in West 6 mph 12 mph 59% 0.00 in 345 W/m2
12:40 46.8 °F 32.8 °F 30.30 in West 8 mph 12 mph 58% 0.00 in 336 W/m2
12:50 46.9 °F 32.9 °F 30.30 in West 7 mph 12 mph 58% 0.00 in 327 W/m2
13:00 47.1 °F 32.7 °F 30.30 in West 7 mph 11 mph 57% 0.00 in 316 W/m2
13:10 47.5 °F 33 °F 30.30 in West 5 mph 10 mph 57% 0.00 in 304 W/m2
13:20 47.5 °F 33.4 °F 30.30 in West 6 mph 11 mph 58% 0.00 in 290 W/m2
13:30 47.4 °F 32.1 °F 30.30 in West 7 mph 13 mph 55% 0.00 in 276 W/m2
13:40 47.3 °F 31.9 °F 30.29 in WSW 6 mph 11 mph 55% 0.00 in 260 W/m2
13:50 47.3 °F 31.9 °F 30.29 in West 6 mph 11 mph 55% 0.00 in 244 W/m2
14:00 47.3 °F 31.5 °F 30.29 in West 7 mph 10 mph 54% 0.00 in 227 W/m2
14:10 47.1 °F 31.3 °F 30.29 in West 7 mph 12 mph 54% 0.00 in 208 W/m2
14:20 46.9 °F 32 °F 30.29 in West 7 mph 10 mph 56% 0.00 in 189 W/m2
14:30 46.8 °F 31.4 °F 30.29 in West 5 mph 10 mph 55% 0.00 in 170 W/m2
14:40 46.6 °F 30.8 °F 30.29 in West 5 mph 10 mph 54% 0.00 in 150 W/m2
14:50 46.4 °F 31.5 °F 30.29 in WSW 7 mph 12 mph 56% 0.00 in 130 W/m2
15:00 45.5 °F 33.6 °F 30.29 in WSW 7 mph 12 mph 63% 0.00 in 109 W/m2
15:10 44.9 °F 33.8 °F 30.30 in SW 9 mph 12 mph 65% 0.00 in 89 W/m2
15:20 44.2 °F 33.2 °F 30.30 in SW 7 mph 11 mph 65% 0.00 in 70 W/m2
15:30 43.7 °F 33.5 °F 30.31 in WSW 7 mph 12 mph 67% 0.00 in 51 W/m2
15:40 43.2 °F 33.3 °F 30.31 in WSW 7 mph 10 mph 68% 0.00 in 33 W/m2
15:50 42.4 °F 33 °F 30.31 in WSW 8 mph 12 mph 69% 0.00 in 17 W/m2
16:00 41.8 °F 32.8 °F 30.31 in WSW 6 mph 12 mph 70% 0.00 in 3 W/m2
16:10 41.1 °F 32.1 °F 30.31 in SW 6 mph 10 mph 70% 0.00 in 12 W/m2
16:20 40.5 °F 31.4 °F 30.32 in WSW 6 mph 10 mph 70% 0.00 in 0 W/m2
16:30 39.7 °F 30.3 °F 30.32 in WSW 8 mph 13 mph 69% 0.00 in 0 W/m2
16:40 39.1 °F 30.2 °F 30.32 in WSW 6 mph 12 mph 70% 0.00 in 0 W/m2
16:50 38.5 °F 29.5 °F 30.33 in WSW 8 mph 12 mph 70% 0.00 in 0 W/m2
17:00 38.1 °F 29.1 °F 30.33 in WSW 8 mph 16 mph 70% 0.00 in 0 W/m2
17:10 37.6 °F 29.4 °F 30.33 in WSW 7 mph 13 mph 72% 0.00 in 0 W/m2
17:20 37.2 °F 29.4 °F 30.33 in WSW 6 mph 10 mph 73% 0.00 in 0 W/m2
17:30 36.9 °F 29 °F 30.33 in WSW 7 mph 12 mph 73% 0.00 in 0 W/m2
17:40 36.5 °F 29 °F 30.33 in WSW 8 mph 13 mph 74% 0.00 in 0 W/m2
17:50 36.1 °F 29 °F 30.33 in West 7 mph 12 mph 75% 0.00 in 0 W/m2
18:00 35.8 °F 28.6 °F 30.34 in WSW 2 mph 8 mph 75% 0.00 in 0 W/m2
18:10 35.4 °F 28.2 °F 30.34 in SW 3 mph 5 mph 75% 0.00 in 0 W/m2
18:20 34.8 °F 28.3 °F 30.34 in SW 2 mph 6 mph 77% 0.00 in 0 W/m2
18:30 34.3 °F 27.8 °F 30.34 in SSW 2 mph 5 mph 77% 0.00 in 0 W/m2
18:40 33.6 °F 27.5 °F 30.34 in South 2 mph 5 mph 78% 0.00 in 0 W/m2
18:50 33.3 °F 27.5 °F 30.34 in SSW 2 mph 5 mph 79% 0.00 in 0 W/m2
19:00 32.7 °F 27.2 °F 30.35 in SE 1 mph 6 mph 80% 0.00 in 0 W/m2
19:10 32.4 °F 26.9 °F 30.35 in Calm   3 mph 80% 0.00 in 0 W/m2
19:20 32 °F 26.5 °F 30.35 in NW 1 mph 2 mph 80% 0.00 in 0 W/m2
19:30 31.6 °F 26.2 °F 30.35 in Calm   3 mph 80% 0.00 in 0 W/m2
19:40 31.3 °F 26.1 °F 30.35 in Calm   2 mph 81% 0.00 in 0 W/m2
19:50 30.9 °F 25.8 °F 30.35 in Calm   5 mph 81% 0.00 in 0 W/m2
20:00 30.6 °F 26 °F 30.35 in Calm   3 mph 83% 0.00 in 0 W/m2
20:10 30.4 °F 25.8 °F 30.35 in North 2 mph 2 mph 83% 0.00 in 0 W/m2
20:20 30 °F 25.5 °F 30.35 in North 1 mph 3 mph 83% 0.00 in 0 W/m2
20:30 29.8 °F 25.3 °F 30.36 in Calm   2 mph 83% 0.00 in 0 W/m2
20:40 29.7 °F 25.4 °F 30.37 in Calm   4 mph 84% 0.00 in 0 W/m2
20:50 29.7 °F 25.4 °F 30.39 in Calm   4 mph 84% 0.00 in 0 W/m2
21:00 29.3 °F 25.1 °F 30.36 in South 1 mph 5 mph 84% 0.00 in 0 W/m2
21:10 28.9 °F 24.7 °F 30.35 in SW 1 mph 3 mph 84% 0.00 in 0 W/m2
21:20 28.9 °F 25 °F 30.37 in SE 1 mph 6 mph 85% 0.00 in 0 W/m2
21:30 28.9 °F 25 °F 30.35 in SSW 2 mph 4 mph 85% 0.00 in 0 W/m2
21:40 28.8 °F 24.8 °F 30.34 in South 2 mph 6 mph 85% 0.00 in 0 W/m2
21:50 28.6 °F 24.6 °F 30.37 in North 1 mph 3 mph 85% 0.00 in 0 W/m2
22:00 28.4 °F 24.5 °F 30.36 in NW 1 mph 3 mph 85% 0.00 in 0 W/m2
22:10 28.2 °F 24.3 °F 30.35 in Calm   3 mph 85% 0.00 in 0 W/m2
22:20 28.2 °F 24.3 °F 30.36 in SSE 1 mph 5 mph 85% 0.00 in 0 W/m2
22:30 28 °F 24.1 °F 30.36 in Calm   3 mph 85% 0.00 in 0 W/m2
22:40 28.1 °F 24.5 °F 30.37 in SSE 1 mph 6 mph 86% 0.00 in 0 W/m2
22:50 28.2 °F 24.6 °F 30.38 in SE 1 mph 5 mph 86% 0.00 in 0 W/m2
23:00 28 °F 24.4 °F 30.38 in WNW 1 mph 2 mph 86% 0.00 in 0 W/m2
23:10 27.8 °F 24.1 °F 30.37 in Calm   3 mph 86% 0.00 in 0 W/m2
Knjazevac, Serbia
Compliments of Weather Underground - 2 mb